Richmond Beach, Washington
Current Conditions -  °F | °C
As of 7:53 PM on Friday 28 Nov 2014 (Local Time) from KPAE Reporting Station
Unknown Precip Unknown Precip  
Wind Chill: 33°   Ceiling: 3300
Heat Index: 37°   Visibility: 10mi
Dew Point: 34°   Wind: 5mph
Humidity: 89%   Direction: 170°S
Pressure: 29.5"   Gusts: NA
Location:  47.7424°N, 122.371°W
Report Text: KPAE 290353Z 17004KT 10SM UP SCT014 BKN033 OVC041 03/01 A2950 RMK AO2 RAE45UPB50 SLP991 P0001 T00280011
Loading
Personal Weather Stations






























Interactive Weather Map New forecast layout! Learn more

10-Day Weather Forecast

Advertisements
Track Severe Weather on mobile